M I D A S
Marine Information and Data Acquisition System
Tripno 1848 of the Zeeleeuw from 2010-03-24 07:33:29 to 2010-03-24 13:09:19
Back to CruiseResearch ActivitiesStationsMapUnderway DataData graphs

EquipmentUnitsComment
TimeDGPSUTC
LatitudeDGPSDM.mWGS84
LongitudeDGPSDM.mWGS84
HeadingGyrodeg 
SOGDGPSknotsSpeed over ground
COGDGPSdegCourse over ground
DepthEcho soundermeters200 kHz
Missing or incorrect values are displayed as -999
Navigation data collected by the RV Zeeleeuw from 2010-03-24 07:34:48 to 2010-03-24 13:20:32
Time Latitude Longitude Heading SOG COG Depth
2010-03-24 07:35:53 51°13.662 2°55.962 134.3 -999 353 8
2010-03-24 07:36:53 51°13.662 2°55.962 130.9 -999 254 8
2010-03-24 07:37:53 51°13.663 2°55.953 118.6 1.3 291 8.1
2010-03-24 07:38:57 51°13.68 2°55.884 112.1 3.4 287 -999
2010-03-24 07:39:57 51°13.695 2°55.779 104.6 4.1 279 -999
2010-03-24 07:40:55 51°13.704 2°55.742 65.4 1.9 40 12.9
2010-03-24 07:41:54 51°13.713 2°55.752 16.6 1.1 186 13.3
2010-03-24 07:42:56 51°13.745 2°55.725 334.5 5 326 12
2010-03-24 07:43:54 51°13.834 2°55.638 340.3 7.3 333 11.6
2010-03-24 07:44:53 51°13.954 2°55.548 342.9 8.7 335 11.6
2010-03-24 07:45:53 51°14.089 2°55.452 342.8 8.8 334 11.7
2010-03-24 07:46:53 51°14.224 2°55.346 338.3 9.8 329 11.7
2010-03-24 07:47:53 51°14.376 2°55.192 335.9 11.2 327 11.9
2010-03-24 07:48:53 51°14.54 2°55.013 330.8 12.7 322 13.5
2010-03-24 07:49:53 51°14.661 2°54.735 295.7 13.1 288 11.4
2010-03-24 07:50:53 51°14.617 2°54.416 243.9 12.8 237 11.3
2010-03-24 07:51:53 51°14.494 2°54.138 241.2 12.8 236 11.3
2010-03-24 07:52:53 51°14.372 2°53.859 239 12.9 233 11.1
2010-03-24 07:53:53 51°14.243 2°53.584 239 13.1 233 11.2
2010-03-24 07:54:53 51°14.115 2°53.306 238.2 13 234 11.5
2010-03-24 07:55:53 51°13.997 2°53.018 244.5 13 240 11.7
2010-03-24 07:56:53 51°13.889 2°52.72 244.8 13 241 11.9
2010-03-24 07:57:53 51°13.781 2°52.421 244.6 13 240 12.1
2010-03-24 07:58:53 51°13.672 2°52.121 244.3 13.1 241 12
2010-03-24 07:59:53 51°13.563 2°51.819 244.1 13.2 240 12.2
2010-03-24 08:00:53 51°13.455 2°51.515 244.4 13.2 240 12.3
2010-03-24 08:01:53 51°13.347 2°51.21 244.3 13.2 241 12.4
2010-03-24 08:02:53 51°13.239 2°50.904 244.2 13.2 241 12.5
2010-03-24 08:03:53 51°13.131 2°50.597 243.8 13.3 241 12.6
2010-03-24 08:04:53 51°13.025 2°50.29 244.3 13.3 241 12.8
2010-03-24 08:05:53 51°12.92 2°49.981 244.4 13.3 242 12.9
2010-03-24 08:06:53 51°12.816 2°49.671 244.4 13.3 242 13
2010-03-24 08:07:53 51°12.713 2°49.359 244.2 13.3 242 13.2
2010-03-24 08:08:53 51°12.61 2°49.047 244.3 13.3 243 13.4
2010-03-24 08:09:53 51°12.509 2°48.733 244.3 13.4 243 13.4
2010-03-24 08:10:53 51°12.407 2°48.417 243.9 13.4 243 13.5
2010-03-24 08:11:53 51°12.307 2°48.099 244.4 13.5 244 13.7
2010-03-24 08:12:53 51°12.207 2°47.78 243.8 13.5 243 13.8
2010-03-24 08:13:53 51°12.107 2°47.459 244.4 13.6 244 13.9
2010-03-24 08:14:53 51°12.009 2°47.136 244.3 13.5 244 13.9
2010-03-24 08:15:53 51°11.911 2°46.815 244.4 13.5 244 13.9
2010-03-24 08:16:53 51°11.813 2°46.493 244.5 13.5 245 14
2010-03-24 08:17:53 51°11.716 2°46.169 244.1 13.7 244 14
2010-03-24 08:18:53 51°11.62 2°45.843 244.6 13.6 245 13.8
2010-03-24 08:19:53 51°11.524 2°45.517 244 13.5 245 13.6
2010-03-24 08:20:53 51°11.431 2°45.19 244.2 13.5 246 13.5
2010-03-24 08:21:53 51°11.338 2°44.861 244 13.6 246 13.4
2010-03-24 08:22:53 51°11.245 2°44.533 244 13.6 246 13.2
2010-03-24 08:23:53 51°11.154 2°44.204 244.6 13.6 246 13.1
2010-03-24 08:24:53 51°11.063 2°43.873 244 13.6 246 12.9
2010-03-24 08:25:53 51°10.973 2°43.543 246.2 13.5 248 12.8
2010-03-24 08:26:53 51°10.9 2°43.202 250.3 13.6 252 12.8
2010-03-24 08:27:53 51°10.829 2°42.86 249.6 13.6 252 12.7
2010-03-24 08:28:53 51°10.758 2°42.516 249.8 13.6 252 12.7
2010-03-24 08:29:53 51°10.687 2°42.172 249.3 13.7 252 12.8
2010-03-24 08:30:53 51°10.617 2°41.829 249.4 13.5 251 12.9
2010-03-24 08:31:53 51°10.547 2°41.487 249 13.5 252 12.9
2010-03-24 08:32:53 51°10.478 2°41.147 249 13.5 252 13
2010-03-24 08:33:53 51°10.409 2°40.806 248.9 13.5 252 13.1
2010-03-24 08:34:53 51°10.34 2°40.465 249 13.6 253 13.2
2010-03-24 08:35:53 51°10.272 2°40.122 249.5 13.6 253 13.5
2010-03-24 08:36:53 51°10.203 2°39.779 248.9 13.6 251 13.8
2010-03-24 08:37:53 51°10.12 2°39.446 243.9 13.6 246 14.1
2010-03-24 08:38:53 51°10.034 2°39.111 244.4 13.7 248 14.4
2010-03-24 08:39:53 51°9.948 2°38.776 243.9 13.7 247 14.7
2010-03-24 08:40:53 51°9.863 2°38.439 244 13.8 249 15
2010-03-24 08:41:53 51°9.777 2°38.101 244.1 13.8 249 15.3
2010-03-24 08:42:53 51°9.691 2°37.763 244.3 13.7 249 15.6
2010-03-24 08:43:53 51°9.606 2°37.422 243.9 13.9 249 16.1
2010-03-24 08:44:53 51°9.519 2°37.084 242.3 13.9 246 16.7
2010-03-24 08:45:53 51°9.416 2°36.757 238.7 13.9 243 16.7
2010-03-24 08:46:53 51°9.311 2°36.43 238.9 13.9 243 16.7
2010-03-24 08:47:53 51°9.206 2°36.103 239.1 13.9 243 16.8
2010-03-24 08:48:53 51°9.101 2°35.778 239 13.8 243 16.9
2010-03-24 08:49:53 51°8.996 2°35.45 239.4 13.9 243 17.1
2010-03-24 08:50:53 51°8.887 2°35.126 236.5 13.9 240 17.1
2010-03-24 08:51:53 51°8.771 2°34.808 236.2 13.9 239 17.4
2010-03-24 08:52:53 51°8.654 2°34.491 235.9 13.8 240 17.8
2010-03-24 08:53:53 51°8.534 2°34.179 233.4 13.8 237 17.6
2010-03-24 08:54:53 51°8.407 2°33.876 232.5 13.8 236 17.5
2010-03-24 08:55:53 51°8.261 2°33.596 221.1 13.7 224 16.9
2010-03-24 08:56:53 51°8.091 2°33.356 218.2 13.7 222 14.3
2010-03-24 08:57:53 51°7.927 2°33.128 217.6 10.5 219 12.4
2010-03-24 08:58:53 51°7.844 2°33.048 220.4 3.1 231 11.1
2010-03-24 08:59:53 51°7.84 2°33.024 275.9 0.3 36 11.3
2010-03-24 09:00:53 51°7.861 2°32.994 331.5 3.3 333 11.6
2010-03-24 09:01:53 51°7.922 2°33.021 48.3 4.3 48 12.9
2010-03-24 09:02:53 51°7.943 2°33.142 84.1 5.2 81 12.5
2010-03-24 09:03:53 51°7.95 2°33.194 102.9 0.5 335 12.2
2010-03-24 09:04:53 51°7.958 2°33.186 86.5 0.5 329 12.3
2010-03-24 09:05:53 51°7.967 2°33.178 68.6 0.6 331 12.5
2010-03-24 09:06:53 51°7.976 2°33.17 54.4 0.7 332 12.6
2010-03-24 09:07:53 51°7.986 2°33.162 47 0.7 330 13.2
2010-03-24 09:08:53 51°7.996 2°33.152 46.4 0.7 328 13.5
2010-03-24 09:09:53 51°8.005 2°33.143 49.7 0.7 325 13.8
2010-03-24 09:10:53 51°8.013 2°33.132 52.8 0.6 322 14.3
2010-03-24 09:11:53 51°8.021 2°33.122 54.7 0.6 318 14.7
2010-03-24 09:12:53 51°8.029 2°33.11 57.1 0.6 314 14.8
2010-03-24 09:13:53 51°8.038 2°33.096 58.2 0.7 314 15.4
2010-03-24 09:14:53 51°8.046 2°33.082 58 0.7 311 15.6
2010-03-24 09:15:53 51°8.054 2°33.068 58 0.7 311 15.9
2010-03-24 09:16:53 51°8.061 2°33.055 57.3 0.7 313 16
2010-03-24 09:18:29 51°8.074 2°33.032 56.8 0.7 307 16.2
2010-03-24 09:19:29 51°8.082 2°33.017 54.7 0.8 310 16.4
2010-03-24 09:20:29 51°8.088 2°33.002 54.4 0.7 308 16.4
2010-03-24 09:21:29 51°8.096 2°32.987 55.3 0.9 312 16.6
2010-03-24 09:22:29 51°8.104 2°32.972 57.1 0.8 311 16.8
2010-03-24 09:23:29 51°8.115 2°32.98 80.3 2 74 16.9
2010-03-24 09:24:29 51°8.091 2°33.039 148.9 3.5 154 16.4
2010-03-24 09:25:29 51°8.018 2°33.081 157.7 5.2 161 14.8
2010-03-24 09:26:29 51°7.938 2°33.134 151.8 4.9 154 12.3
2010-03-24 09:27:29 51°7.91 2°33.159 130.5 0.3 290 11.2
2010-03-24 09:28:29 51°7.913 2°33.152 106.1 0.4 317 4.8
2010-03-24 09:29:29 51°7.918 2°33.144 84.8 0.4 316 11.6
2010-03-24 09:30:29 51°7.924 2°33.136 72.2 0.6 327 11.9
2010-03-24 09:31:29 51°7.931 2°33.128 63.2 0.6 327 12
2010-03-24 09:32:29 51°7.939 2°33.12 59.6 0.6 330 12.2
2010-03-24 09:33:29 51°7.946 2°33.113 61.7 0.4 334 12.5
2010-03-24 09:34:29 51°7.953 2°33.108 68.1 0.5 332 12.6
2010-03-24 09:35:29 51°7.961 2°33.103 74.1 0.4 334 12.6
2010-03-24 09:36:29 51°7.966 2°33.097 78 0.4 331 13
2010-03-24 09:37:29 51°7.973 2°33.091 79 0.4 329 13.3
2010-03-24 09:38:29 51°7.979 2°33.085 80.1 0.5 330 13.5
2010-03-24 09:39:29 51°7.985 2°33.079 80.9 0.5 331 13.7
2010-03-24 09:40:29 51°7.992 2°33.073 80.5 0.5 332 13.7
2010-03-24 09:41:29 51°7.998 2°33.068 79.9 0.4 330 14.1
2010-03-24 09:42:29 51°8.003 2°33.061 80.1 0.4 324 14.4
2010-03-24 09:43:29 51°8.011 2°33.056 80.6 0.5 331 14.7
2010-03-24 09:44:29 51°8.016 2°33.049 83.1 0.4 323 14.9
2010-03-24 09:45:29 51°8.022 2°33.042 85.9 0.4 323 14.8
2010-03-24 09:46:29 51°8.027 2°33.035 87.8 0.4 317 15.1
2010-03-24 09:47:29 51°8.032 2°33.028 87.6 0.4 314 15.4
2010-03-24 09:48:29 51°8.038 2°33.02 88.3 0.4 318 15.4
2010-03-24 09:49:29 51°8.043 2°33.013 88.9 0.4 318 15.6
2010-03-24 09:50:29 51°8.048 2°33.005 89 0.4 316 15.6
2010-03-24 09:51:29 51°8.052 2°32.997 88.9 0.4 314 15.8
2010-03-24 09:52:29 51°8.058 2°32.99 89.2 0.4 314 15.8
2010-03-24 09:53:29 51°8.064 2°32.982 89.2 0.6 321 15.8
2010-03-24 09:54:29 51°8.07 2°32.973 87.3 0.5 319 15.8
2010-03-24 09:55:29 51°8.077 2°32.963 85.4 0.6 315 16.2
2010-03-24 09:56:29 51°8.084 2°32.952 83.7 0.6 321 16.3
2010-03-24 09:57:29 51°8.09 2°32.955 93.7 1 81 16.4
2010-03-24 09:58:29 51°8.064 2°32.995 155.4 3.4 166 15.9
2010-03-24 09:59:29 51°7.978 2°33.029 150.8 7 156 13.7
2010-03-24 10:00:29 51°7.896 2°33.138 111.1 4.3 112 10.5
2010-03-24 10:01:29 51°7.89 2°33.182 72.3 0.2 341 10.4
2010-03-24 10:02:29 51°7.895 2°33.176 48.1 0.5 321 10.5
2010-03-24 10:03:29 51°7.902 2°33.168 48.3 0.5 321 10.8
2010-03-24 10:04:29 51°7.908 2°33.159 56 0.5 312 10.7
2010-03-24 10:05:29 51°7.913 2°33.15 61.9 0.5 334 10.8
2010-03-24 10:06:29 51°7.951 2°33.174 24.3 5 15 11.6
2010-03-24 10:07:29 51°8.061 2°33.194 4.8 7.6 358 14.4
2010-03-24 10:08:29 51°8.19 2°33.143 345.9 8.3 339 16.5
2010-03-24 10:09:29 51°8.324 2°33.079 354.8 8.4 349 16.7
2010-03-24 10:10:29 51°8.463 2°33.048 358.7 8.5 353 16.4
2010-03-24 10:11:29 51°8.6 2°33.063 13.2 8.3 6 17.6
2010-03-24 10:12:29 51°8.731 2°33.053 355.2 6.5 348 18.5
2010-03-24 10:13:29 51°8.8 2°33.005 350.9 2.9 338 18.5
2010-03-24 10:14:29 51°8.815 2°32.985 25.9 0.8 283 18.5
2010-03-24 10:15:29 51°8.818 2°32.964 30.5 0.8 287 18.5
2010-03-24 10:16:29 51°8.823 2°32.943 40.9 0.9 292 18.5
2010-03-24 10:17:29 51°8.828 2°32.923 53.4 0.8 289 18.5
2010-03-24 10:18:29 51°8.833 2°32.903 63.8 0.8 290 18.6
2010-03-24 10:19:29 51°8.838 2°32.884 72.3 0.8 289 18.6
2010-03-24 10:20:29 51°8.843 2°32.864 78.9 0.8 291 18.7
2010-03-24 10:21:29 51°8.848 2°32.844 82.6 0.9 294 18.7
2010-03-24 10:22:29 51°8.853 2°32.823 83.3 0.9 295 18.7
2010-03-24 10:23:29 51°8.859 2°32.802 82.5 0.9 293 18.8
2010-03-24 10:24:29 51°8.865 2°32.78 78.8 0.9 293 18.8
2010-03-24 10:25:29 51°8.875 2°32.796 76.9 3 70 18.7
2010-03-24 10:26:29 51°8.902 2°32.913 69.1 5.6 66 18.6
2010-03-24 10:27:29 51°8.929 2°33.021 78.1 3.6 75 18.4
2010-03-24 10:28:29 51°8.935 2°33.055 100 0.7 291 18.5
2010-03-24 10:29:29 51°8.941 2°33.038 95.3 0.7 304 18.5
2010-03-24 10:30:29 51°8.947 2°33.026 81.2 0.6 22 18.5
2010-03-24 10:31:29 51°8.954 2°33.081 88.6 3.9 87 18.4
2010-03-24 10:32:29 51°8.945 2°33.214 100.7 6.1 101 18.2
2010-03-24 10:33:29 51°8.92 2°33.414 100 8.2 98 17.9
2010-03-24 10:34:29 51°8.918 2°33.654 89.4 9.8 90 17.1
2010-03-24 10:35:29 51°8.895 2°33.917 100 10.1 100 15.7
2010-03-24 10:36:29 51°8.882 2°34.155 91.9 6.5 91 16.1
2010-03-24 10:37:29 51°8.894 2°34.256 65.6 1.7 56 16.1
2010-03-24 10:38:29 51°8.898 2°34.247 44.3 0.7 279 16.3
2010-03-24 10:39:29 51°8.902 2°34.226 36.4 0.9 291 15.8
2010-03-24 10:40:29 51°8.908 2°34.205 38.6 0.8 296 16
2010-03-24 10:41:29 51°8.914 2°34.186 47.3 0.8 296 15.7
2010-03-24 10:42:29 51°8.919 2°34.168 57.4 0.7 289 15.9
2010-03-24 10:43:29 51°8.922 2°34.15 65.1 0.8 290 15.7
2010-03-24 10:44:29 51°8.925 2°34.133 71.2 0.7 282 15.1
2010-03-24 10:45:29 51°8.927 2°34.115 76.6 0.7 277 15.4
2010-03-24 10:46:29 51°8.93 2°34.097 81.5 0.7 283 15.5
2010-03-24 10:47:29 51°8.932 2°34.079 85.9 0.7 284 15.6
2010-03-24 10:48:29 51°8.934 2°34.06 88.3 0.7 282 15.5
2010-03-24 10:49:29 51°8.936 2°34.041 90.9 0.8 280 15.6
2010-03-24 10:50:29 51°8.938 2°34.021 93.7 0.8 280 15.8
2010-03-24 10:51:29 51°8.941 2°34.001 95.9 0.8 281 15.6
2010-03-24 10:52:29 51°8.943 2°33.98 96 0.8 282 15.6
2010-03-24 10:53:29 51°8.94 2°33.998 105.5 3.7 111 15.6
2010-03-24 10:54:29 51°8.874 2°34.153 122.9 9.7 126 15.5
2010-03-24 10:55:29 51°8.764 2°34.375 124.5 11 128 16.5
2010-03-24 10:56:29 51°8.65 2°34.606 124.2 11.1 128 16.2
2010-03-24 10:57:29 51°8.567 2°34.795 102.8 5.4 100 12.4
2010-03-24 10:58:29 51°8.595 2°34.873 44.9 3 28 12.5
2010-03-24 10:59:29 51°8.648 2°34.868 2.2 4 348 14.5
2010-03-24 11:00:29 51°8.73 2°34.853 11.7 5.4 1 16.1
2010-03-24 11:01:29 51°8.808 2°34.897 45.7 4.6 39 16.3
2010-03-24 11:02:29 51°8.844 2°34.992 72.3 3.9 70 16.1
2010-03-24 11:03:29 51°8.86 2°35.072 77 2.8 75 16.1
2010-03-24 11:04:29 51°8.869 2°35.136 81.4 2.2 80 16
2010-03-24 11:05:29 51°8.873 2°35.19 86 1.9 86 16
2010-03-24 11:06:29 51°8.871 2°35.239 94.4 2 98 15.8
2010-03-24 11:07:29 51°8.865 2°35.293 95.6 2.1 99 15.4
2010-03-24 11:08:29 51°8.861 2°35.349 90 2.1 93 15.2
2010-03-24 11:09:29 51°8.865 2°35.406 81 2.2 80 14.9
2010-03-24 11:10:29 51°8.871 2°35.463 82.3 2.2 81 14.6
2010-03-24 11:11:29 51°8.878 2°35.52 80.7 2.2 80 14.3
2010-03-24 11:12:29 51°8.884 2°35.577 82.5 2.2 80 14.1
2010-03-24 11:13:29 51°8.891 2°35.635 82.1 2.2 81 13.7
2010-03-24 11:14:29 51°8.899 2°35.692 76.5 2.2 70 13.4
2010-03-24 11:15:29 51°8.916 2°35.745 67.3 2.3 57 13.5
2010-03-24 11:16:29 51°8.934 2°35.797 70.6 2.3 62 13.5
2010-03-24 11:17:29 51°8.952 2°35.85 69.8 2.3 63 13.6
2010-03-24 11:18:29 51°8.97 2°35.904 71.5 2.2 63 13.5
2010-03-24 11:19:29 51°8.987 2°35.956 71 2.3 61 13.4
2010-03-24 11:20:29 51°9.006 2°36.008 67.9 2.3 57 13.5
2010-03-24 11:21:29 51°9.025 2°36.059 71.7 2.2 62 13.5
2010-03-24 11:22:29 51°9.039 2°36.11 75.4 2.1 69 13.5
2010-03-24 11:23:29 51°9.052 2°36.163 74.1 2.2 68 13.3
2010-03-24 11:24:29 51°9.068 2°36.215 72.5 2.2 64 13.4
2010-03-24 11:25:29 51°9.086 2°36.266 71.8 2.2 59 13.3
2010-03-24 11:26:29 51°9.105 2°36.316 72.8 2.1 62 13.4
2010-03-24 11:27:29 51°9.121 2°36.366 76.3 2.1 65 13.3
2010-03-24 11:28:29 51°9.131 2°36.417 87.4 1.9 82 13.1
2010-03-24 11:29:29 51°9.128 2°36.464 96.8 1.8 97 12.7
2010-03-24 11:30:29 51°9.126 2°36.511 94.4 1.8 96 12.3
2010-03-24 11:31:29 51°9.121 2°36.546 102 1 111 12
2010-03-24 11:32:29 51°9.114 2°36.563 113.4 1 139 11.8
2010-03-24 11:33:29 51°9.095 2°36.573 135.2 1.1 183 11.5
2010-03-24 11:34:29 51°9.081 2°36.565 135.9 0.9 218 11.3
2010-03-24 11:35:29 51°9.074 2°36.546 129.2 0.9 253 11.2
2010-03-24 11:36:29 51°9.072 2°36.526 120.5 0.5 225 11.2
2010-03-24 11:37:29 51°9.046 2°36.532 152.4 2.6 179 10.8
2010-03-24 11:38:29 51°8.989 2°36.465 235.1 5.8 246 10.1
2010-03-24 11:39:29 51°9.017 2°36.322 329.4 5.8 322 11.3
2010-03-24 11:40:29 51°9.087 2°36.335 59.5 3.5 54 12.8
2010-03-24 11:41:29 51°9.106 2°36.383 75.5 1.4 58 12.8
2010-03-24 11:42:29 51°9.114 2°36.403 80.9 0.6 50 12.9
2010-03-24 11:43:29 51°9.119 2°36.406 82.8 0.2 339 13
2010-03-24 11:44:29 51°9.122 2°36.398 81.4 0.5 297 13.1
2010-03-24 11:45:29 51°9.125 2°36.382 80.1 0.7 286 13.3
2010-03-24 11:46:29 51°9.128 2°36.362 79.2 0.9 282 13.4
2010-03-24 11:47:29 51°9.13 2°36.338 78.8 1 276 13.7
2010-03-24 11:48:29 51°9.132 2°36.311 78.5 1.1 278 13.8
2010-03-24 11:49:29 51°9.134 2°36.285 80.9 0.6 291 14.1
2010-03-24 11:50:29 51°9.133 2°36.321 100 3.3 103 13.8
2010-03-24 11:51:29 51°9.11 2°36.485 97.1 8.8 97 12.1
2010-03-24 11:52:29 51°9.11 2°36.745 84.8 10.3 83 10.8
2010-03-24 11:53:29 51°9.151 2°37.015 76.9 10.9 75 10.2
2010-03-24 11:54:29 51°9.197 2°37.307 78 11.6 76 10
2010-03-24 11:55:29 51°9.239 2°37.606 79.4 11.5 78 9.7
2010-03-24 11:56:29 51°9.279 2°37.906 79.9 11.6 78 9.5
2010-03-24 11:57:29 51°9.333 2°38.199 70.8 11.6 67 9.5
2010-03-24 11:58:29 51°9.415 2°38.48 68.3 11.7 66 9.7
2010-03-24 11:59:29 51°9.494 2°38.762 68.7 11.7 66 9.6
2010-03-24 12:00:29 51°9.573 2°39.044 68.3 11.7 66 9.6
2010-03-24 12:01:29 51°9.653 2°39.324 68.4 11.7 66 9.5
2010-03-24 12:02:29 51°9.73 2°39.608 69.4 11.7 67 9.4
2010-03-24 12:03:29 51°9.807 2°39.893 69 11.7 66 9.4
2010-03-24 12:04:29 51°9.885 2°40.177 69.1 11.7 67 9.5
2010-03-24 12:05:29 51°9.963 2°40.462 69 11.7 66 9.3
2010-03-24 12:06:29 51°10.041 2°40.747 69.3 11.7 67 9.3
2010-03-24 12:07:29 51°10.118 2°41.032 69.4 11.7 67 9.3
2010-03-24 12:08:29 51°10.194 2°41.318 69 11.7 67 9.2
2010-03-24 12:09:29 51°10.27 2°41.603 69.3 11.7 67 9.2
2010-03-24 12:10:29 51°10.345 2°41.889 69.1 11.7 67 9.1
2010-03-24 12:11:29 51°10.421 2°42.177 68.8 11.8 67 9.1
2010-03-24 12:12:29 51°10.497 2°42.465 69 11.8 67 9.1
2010-03-24 12:13:29 51°10.573 2°42.753 69.5 11.7 68 9.1
2010-03-24 12:14:29 51°10.648 2°43.041 69.4 11.7 67 9.2
2010-03-24 12:15:29 51°10.721 2°43.328 69.5 11.7 68 9.3
2010-03-24 12:16:29 51°10.797 2°43.616 68.8 12.1 67 9.4
2010-03-24 12:17:29 51°10.877 2°43.92 68.8 12.6 67 9.4
2010-03-24 12:18:29 51°10.959 2°44.23 69.2 12.7 68 9.6
2010-03-24 12:19:29 51°11.041 2°44.54 69.2 12.7 67 9.6
2010-03-24 12:20:29 51°11.121 2°44.85 69 12.7 68 9.6
2010-03-24 12:21:29 51°11.2 2°45.16 69.7 12.7 68 9.6
2010-03-24 12:22:29 51°11.28 2°45.47 69.2 12.6 67 9.6
2010-03-24 12:23:29 51°11.36 2°45.78 68.8 12.6 67 9.7
2010-03-24 12:24:29 51°11.441 2°46.089 69.3 12.6 68 9.7
2010-03-24 12:25:29 51°11.523 2°46.399 69.1 12.6 67 9.5
2010-03-24 12:26:29 51°11.603 2°46.707 68.9 12.5 67 9.3
2010-03-24 12:27:29 51°11.695 2°47.007 64.7 12.6 63 9.4
2010-03-24 12:28:29 51°11.792 2°47.303 61.5 12.7 60 9.6
2010-03-24 12:29:29 51°11.916 2°47.575 56.1 12.7 54 10
2010-03-24 12:30:29 51°12.042 2°47.846 56.7 12.7 54 10.4
2010-03-24 12:31:29 51°12.166 2°48.119 57.1 12.7 55 10.7
2010-03-24 12:32:29 51°12.29 2°48.391 56.5 12.7 54 11
2010-03-24 12:33:29 51°12.412 2°48.664 57.4 12.6 55 11.1
2010-03-24 12:34:29 51°12.533 2°48.935 57.1 12.6 54 11.2
2010-03-24 12:35:29 51°12.654 2°49.207 57.2 12.5 55 11.2
2010-03-24 12:36:29 51°12.774 2°49.479 57.5 12.6 55 11.1
2010-03-24 12:37:29 51°12.896 2°49.749 57.4 12.6 54 11.1
2010-03-24 12:38:29 51°13.017 2°50.02 57.4 12.5 54 10.9
2010-03-24 12:39:29 51°13.14 2°50.289 57.3 12.5 55 10.9
2010-03-24 12:40:29 51°13.262 2°50.559 57.5 12.6 54 10.8
2010-03-24 12:41:29 51°13.371 2°50.803 59 8.6 56 11
2010-03-24 12:42:29 51°13.433 2°50.948 58.2 5.1 54 10.9
2010-03-24 12:43:29 51°13.464 2°51.032 68.9 2.7 65 10.9
2010-03-24 12:44:29 51°13.468 2°51.046 95.5 1.6 271 10.9
2010-03-24 12:45:30 51°13.467 2°50.989 79.3 2.1 263 10.9
2010-03-24 12:46:29 51°13.46 2°50.942 63.2 1.6 257 10.9
2010-03-24 12:47:29 51°13.457 2°50.91 58.4 1 267 10.9
2010-03-24 12:48:29 51°13.457 2°50.889 64.5 0.6 274 10.8
2010-03-24 12:49:29 51°13.458 2°50.885 82.5 1.4 91 10.9
2010-03-24 12:50:29 51°13.474 2°51.011 73.7 8.1 72 10.9
2010-03-24 12:51:29 51°13.536 2°51.24 67.9 9.8 66 10.7
2010-03-24 12:52:29 51°13.601 2°51.483 68.3 10 67 10.7
2010-03-24 12:53:29 51°13.673 2°51.723 64.1 10 62 10.6
2010-03-24 12:54:29 51°13.753 2°51.956 61.1 10 58 10.5
2010-03-24 12:55:29 51°13.845 2°52.18 58.1 10.1 57 10.4
2010-03-24 12:56:29 51°13.919 2°52.42 71.2 10.1 72 10.4
2010-03-24 12:57:29 51°13.961 2°52.679 72.6 10 73 10.1
2010-03-24 12:58:29 51°14.019 2°52.928 69.8 10.1 70 10
2010-03-24 12:59:29 51°14.089 2°53.169 61.8 10.1 60 9.7
2010-03-24 13:00:29 51°14.175 2°53.399 60.7 10.1 59 9.4
2010-03-24 13:01:29 51°14.261 2°53.631 60.7 10.2 59 9.1
2010-03-24 13:02:29 51°14.348 2°53.866 60.8 10.3 60 9.1
2010-03-24 13:03:29 51°14.435 2°54.101 61.3 10.2 60 9
2010-03-24 13:04:29 51°14.517 2°54.332 63.7 9.5 64 9.3
2010-03-24 13:05:29 51°14.579 2°54.553 67 9 66 9.5
2010-03-24 13:06:29 51°14.6 2°54.783 92.8 8.9 97 9.3
2010-03-24 13:07:29 51°14.527 2°54.986 135 9.1 142 11.5
2010-03-24 13:08:29 51°14.408 2°55.122 145.3 7.7 144 9.8
2010-03-24 13:09:29 51°14.313 2°55.231 145.5 6.6 144 9.1
2010-03-24 13:10:29 51°14.228 2°55.327 145.9 6 145 9.7
2010-03-24 13:11:29 51°14.146 2°55.403 154.1 5.5 154 9.6
2010-03-24 13:12:29 51°14.063 2°55.462 155.4 5.5 155 9.6
2010-03-24 13:13:29 51°13.98 2°55.525 156.2 5.6 155 9.5
2010-03-24 13:14:29 51°13.895 2°55.586 155.8 5.6 155 9.5
2010-03-24 13:15:29 51°13.812 2°55.647 155.3 5.4 154 9.4
2010-03-24 13:16:29 51°13.755 2°55.718 133 3.6 131 9.3
2010-03-24 13:17:29 51°13.724 2°55.785 126 2.9 124 10.6
2010-03-24 13:18:29 51°13.692 2°55.86 124.9 3.9 123 7.7
2010-03-24 13:19:29 51°13.665 2°55.944 112.2 2.7 111 6.3
2010-03-24 13:20:29 51°13.662 2°55.958 122.2 0.2 152 5.8